sensor_id;sensor_type;location;lat;lon;timestamp;pressure;altitude;pressure_sealevel;temperature;humidity
73016;BME280;61893;50.074;14.440;2023-09-19T00:01:53;97838.03;;;17.39;90.60
73016;BME280;61893;50.074;14.440;2023-09-19T00:04:19;97836.41;;;17.38;89.88
73016;BME280;61893;50.074;14.440;2023-09-19T00:06:48;97833.91;;;17.43;89.51
73016;BME280;61893;50.074;14.440;2023-09-19T00:09:15;97842.63;;;17.31;88.77
73016;BME280;61893;50.074;14.440;2023-09-19T00:11:43;97843.84;;;17.36;88.10
73016;BME280;61893;50.074;14.440;2023-09-19T00:14:10;97846.16;;;17.25;88.40
73016;BME280;61893;50.074;14.440;2023-09-19T00:16:47;97856.91;;;17.25;88.29
73016;BME280;61893;50.074;14.440;2023-09-19T00:19:15;97852.38;;;17.26;88.21
73016;BME280;61893;50.074;14.440;2023-09-19T00:21:41;97847.22;;;17.18;88.90
73016;BME280;61893;50.074;14.440;2023-09-19T00:24:10;97854.25;;;17.19;89.34
73016;BME280;61893;50.074;14.440;2023-09-19T00:26:38;97854.66;;;17.16;89.38
73016;BME280;61893;50.074;14.440;2023-09-19T00:29:04;97851.97;;;17.16;88.18
73016;BME280;61893;50.074;14.440;2023-09-19T00:31:45;97865.63;;;17.07;88.68
73016;BME280;61893;50.074;14.440;2023-09-19T00:34:12;97867.47;;;17.14;88.75
73016;BME280;61893;50.074;14.440;2023-09-19T00:36:38;97873.09;;;17.12;87.89
73016;BME280;61893;50.074;14.440;2023-09-19T00:39:05;97874.09;;;17.18;87.34
73016;BME280;61893;50.074;14.440;2023-09-19T00:41:32;97875.78;;;17.05;86.76
73016;BME280;61893;50.074;14.440;2023-09-19T00:44:10;97880.97;;;17.00;87.74
73016;BME280;61893;50.074;14.440;2023-09-19T00:46:42;97880.94;;;16.94;88.24
73016;BME280;61893;50.074;14.440;2023-09-19T00:49:10;97881.16;;;16.99;88.24
73016;BME280;61893;50.074;14.440;2023-09-19T00:51:40;97877.66;;;16.92;88.13
73016;BME280;61893;50.074;14.440;2023-09-19T00:54:13;97871.88;;;16.95;88.44
73016;BME280;61893;50.074;14.440;2023-09-19T00:56:46;97870.00;;;16.95;87.93
73016;BME280;61893;50.074;14.440;2023-09-19T00:59:14;97865.66;;;17.01;87.38
73016;BME280;61893;50.074;14.440;2023-09-19T01:01:41;97870.63;;;16.97;88.17
73016;BME280;61893;50.074;14.440;2023-09-19T01:04:08;97853.69;;;16.83;88.86
73016;BME280;61893;50.074;14.440;2023-09-19T01:06:36;97853.47;;;16.72;90.09
73016;BME280;61893;50.074;14.440;2023-09-19T01:09:07;97861.31;;;16.73;89.77
73016;BME280;61893;50.074;14.440;2023-09-19T01:11:43;97859.25;;;16.75;90.10
73016;BME280;61893;50.074;14.440;2023-09-19T01:14:34;97859.06;;;16.70;90.07
73016;BME280;61893;50.074;14.440;2023-09-19T01:17:32;97868.75;;;16.64;90.25
73016;BME280;61893;50.074;14.440;2023-09-19T01:20:17;97862.16;;;16.60;90.71
73016;BME280;61893;50.074;14.440;2023-09-19T01:28:43;97855.75;;;16.61;89.95
73016;BME280;61893;50.074;14.440;2023-09-19T01:31:12;97844.19;;;16.54;90.16
73016;BME280;61893;50.074;14.440;2023-09-19T01:36:37;97842.53;;;16.60;88.87
73016;BME280;61893;50.074;14.440;2023-09-19T01:39:22;97840.28;;;16.57;88.52
73016;BME280;61893;50.074;14.440;2023-09-19T01:42:08;97848.94;;;16.59;88.42
73016;BME280;61893;50.074;14.440;2023-09-19T01:44:59;97853.47;;;16.65;87.84
73016;BME280;61893;50.074;14.440;2023-09-19T01:47:46;97844.00;;;16.42;88.91
73016;BME280;61893;50.074;14.440;2023-09-19T01:52:53;97851.03;;;16.57;88.24
73016;BME280;61893;50.074;14.440;2023-09-19T01:55:22;97855.13;;;16.59;87.95
73016;BME280;61893;50.074;14.440;2023-09-19T02:00:21;97842.94;;;16.63;87.88
73016;BME280;61893;50.074;14.440;2023-09-19T02:03:02;97849.78;;;16.66;87.46
73016;BME280;61893;50.074;14.440;2023-09-19T02:05:28;97843.78;;;16.64;86.99
73016;BME280;61893;50.074;14.440;2023-09-19T02:07:54;97860.72;;;16.71;86.53
73016;BME280;61893;50.074;14.440;2023-09-19T02:10:21;97851.81;;;16.71;86.62
73016;BME280;61893;50.074;14.440;2023-09-19T02:12:50;97853.06;;;16.68;86.69
73016;BME280;61893;50.074;14.440;2023-09-19T02:15:16;97848.13;;;16.78;86.09
73016;BME280;61893;50.074;14.440;2023-09-19T02:17:45;97855.56;;;16.76;85.74
73016;BME280;61893;50.074;14.440;2023-09-19T02:20:12;97834.06;;;16.76;85.67
73016;BME280;61893;50.074;14.440;2023-09-19T02:22:38;97838.00;;;16.80;85.14
73016;BME280;61893;50.074;14.440;2023-09-19T02:25:04;97838.81;;;16.74;85.09
73016;BME280;61893;50.074;14.440;2023-09-19T02:27:30;97838.81;;;16.81;84.98
73016;BME280;61893;50.074;14.440;2023-09-19T02:29:59;97843.16;;;16.88;84.53
73016;BME280;61893;50.074;14.440;2023-09-19T02:32:27;97837.97;;;16.74;85.17
73016;BME280;61893;50.074;14.440;2023-09-19T02:35:15;97845.00;;;16.81;85.03
73016;BME280;61893;50.074;14.440;2023-09-19T02:37:42;97847.69;;;16.95;84.63
73016;BME280;61893;50.074;14.440;2023-09-19T02:40:12;97836.97;;;16.81;85.13
73016;BME280;61893;50.074;14.440;2023-09-19T02:42:48;97850.38;;;16.88;84.77
73016;BME280;61893;50.074;14.440;2023-09-19T02:45:15;97848.94;;;16.92;84.35
73016;BME280;61893;50.074;14.440;2023-09-19T02:47:42;97844.56;;;16.91;84.14
73016;BME280;61893;50.074;14.440;2023-09-19T02:50:28;97839.56;;;17.08;83.08
73016;BME280;61893;50.074;14.440;2023-09-19T02:52:57;97837.13;;;17.06;82.96
73016;BME280;61893;50.074;14.440;2023-09-19T02:55:23;97838.56;;;17.09;82.64
73016;BME280;61893;50.074;14.440;2023-09-19T02:57:54;97829.69;;;17.08;82.46
73016;BME280;61893;50.074;14.440;2023-09-19T03:00:21;97827.78;;;17.16;82.09
73016;BME280;61893;50.074;14.440;2023-09-19T03:02:52;97826.97;;;17.15;81.64
73016;BME280;61893;50.074;14.440;2023-09-19T03:05:19;97831.72;;;17.20;81.22
73016;BME280;61893;50.074;14.440;2023-09-19T03:07:44;97827.78;;;17.16;81.49
73016;BME280;61893;50.074;14.440;2023-09-19T03:10:12;97822.81;;;17.13;81.52
73016;BME280;61893;50.074;14.440;2023-09-19T03:12:40;97830.06;;;17.12;81.71
73016;BME280;61893;50.074;14.440;2023-09-19T03:15:21;97839.13;;;17.24;80.96
73016;BME280;61893;50.074;14.440;2023-09-19T03:17:48;97835.44;;;17.12;81.35
73016;BME280;61893;50.074;14.440;2023-09-19T03:20:17;97839.09;;;17.31;80.92
73016;BME280;61893;50.074;14.440;2023-09-19T03:23:00;97837.41;;;17.37;80.28
73016;BME280;61893;50.074;14.440;2023-09-19T03:25:41;97841.41;;;17.21;81.08
73016;BME280;61893;50.074;14.440;2023-09-19T03:28:06;97843.69;;;17.24;81.07
73016;BME280;61893;50.074;14.440;2023-09-19T03:30:37;97835.66;;;17.17;81.50
73016;BME280;61893;50.074;14.440;2023-09-19T03:33:04;97838.16;;;17.05;81.92
73016;BME280;61893;50.074;14.440;2023-09-19T03:35:43;97840.59;;;17.20;81.40
73016;BME280;61893;50.074;14.440;2023-09-19T03:38:17;97840.81;;;17.12;82.08
73016;BME280;61893;50.074;14.440;2023-09-19T03:40:44;97851.13;;;17.28;81.15
73016;BME280;61893;50.074;14.440;2023-09-19T03:43:10;97840.56;;;17.27;81.38
73016;BME280;61893;50.074;14.440;2023-09-19T03:45:36;97847.22;;;17.18;81.73
73016;BME280;61893;50.074;14.440;2023-09-19T03:48:10;97841.81;;;17.24;81.49
73016;BME280;61893;50.074;14.440;2023-09-19T03:50:36;97842.47;;;17.13;82.13
73016;BME280;61893;50.074;14.440;2023-09-19T03:53:03;97843.09;;;17.15;81.59
73016;BME280;61893;50.074;14.440;2023-09-19T03:55:29;97854.25;;;17.12;81.85
73016;BME280;61893;50.074;14.440;2023-09-19T03:57:58;97846.00;;;17.07;82.30
73016;BME280;61893;50.074;14.440;2023-09-19T04:00:43;97849.31;;;17.02;83.07
73016;BME280;61893;50.074;14.440;2023-09-19T04:03:29;97850.56;;;17.06;82.57
73016;BME280;61893;50.074;14.440;2023-09-19T04:06:01;97857.97;;;17.11;82.47
73016;BME280;61893;50.074;14.440;2023-09-19T04:08:27;97865.00;;;17.12;82.49
73016;BME280;61893;50.074;14.440;2023-09-19T04:10:52;97864.19;;;17.11;82.64
73016;BME280;61893;50.074;14.440;2023-09-19T04:13:25;97873.50;;;17.09;83.05
73016;BME280;61893;50.074;14.440;2023-09-19T04:15:55;97872.06;;;17.06;82.92
73016;BME280;61893;50.074;14.440;2023-09-19T04:18:27;97878.47;;;17.05;82.99
73016;BME280;61893;50.074;14.440;2023-09-19T04:20:55;97874.53;;;17.08;83.26
73016;BME280;61893;50.074;14.440;2023-09-19T04:23:32;97884.47;;;17.14;82.95
73016;BME280;61893;50.074;14.440;2023-09-19T04:26:00;97885.28;;;17.01;83.53
73016;BME280;61893;50.074;14.440;2023-09-19T04:29:07;97880.09;;;17.13;83.38
73016;BME280;61893;50.074;14.440;2023-09-19T04:31:45;97893.75;;;17.05;83.83
73016;BME280;61893;50.074;14.440;2023-09-19T04:34:42;97901.38;;;17.21;82.83
73016;BME280;61893;50.074;14.440;2023-09-19T04:37:23;97899.13;;;17.18;82.98
73016;BME280;61893;50.074;14.440;2023-09-19T04:39:49;97903.69;;;17.18;82.99
73016;BME280;61893;50.074;14.440;2023-09-19T04:42:56;97907.19;;;17.11;83.54
73016;BME280;61893;50.074;14.440;2023-09-19T04:45:26;97914.00;;;17.21;82.90
73016;BME280;61893;50.074;14.440;2023-09-19T04:47:54;97915.03;;;17.26;82.85
73016;BME280;61893;50.074;14.440;2023-09-19T04:50:28;97915.03;;;17.26;82.19
73016;BME280;61893;50.074;14.440;2023-09-19T04:52:58;97919.81;;;17.18;82.79
73016;BME280;61893;50.074;14.440;2023-09-19T04:55:27;97929.09;;;17.22;82.58
73016;BME280;61893;50.074;14.440;2023-09-19T04:57:53;97928.50;;;17.06;83.08
73016;BME280;61893;50.074;14.440;2023-09-19T05:00:33;97932.00;;;17.20;82.51
73016;BME280;61893;50.074;14.440;2023-09-19T05:03:10;97937.56;;;17.19;82.79
73016;BME280;61893;50.074;14.440;2023-09-19T05:05:36;97938.22;;;17.14;82.80
73016;BME280;61893;50.074;14.440;2023-09-19T05:08:04;97944.41;;;17.15;82.98
73016;BME280;61893;50.074;14.440;2023-09-19T05:10:31;97942.75;;;17.14;82.70
73016;BME280;61893;50.074;14.440;2023-09-19T05:13:12;97949.34;;;17.11;83.21
73016;BME280;61893;50.074;14.440;2023-09-19T05:15:38;97941.53;;;17.09;83.43
73016;BME280;61893;50.074;14.440;2023-09-19T05:18:07;97946.28;;;17.07;83.26
73016;BME280;61893;50.074;14.440;2023-09-19T05:20:39;97958.66;;;17.22;82.92
73016;BME280;61893;50.074;14.440;2023-09-19T05:23:05;97956.16;;;17.33;82.47
73016;BME280;61893;50.074;14.440;2023-09-19T05:25:37;97959.06;;;17.39;81.93
73016;BME280;61893;50.074;14.440;2023-09-19T05:28:04;97960.31;;;17.29;82.09
73016;BME280;61893;50.074;14.440;2023-09-19T05:30:40;97965.88;;;17.28;82.27
73016;BME280;61893;50.074;14.440;2023-09-19T05:33:36;97957.25;;;18.36;80.39
73016;BME280;61893;50.074;14.440;2023-09-19T05:36:04;97959.72;;;19.01;77.05
73016;BME280;61893;50.074;14.440;2023-09-19T05:38:33;97968.81;;;19.50;72.87
73016;BME280;61893;50.074;14.440;2023-09-19T05:41:46;97968.50;;;19.83;71.54
73016;BME280;61893;50.074;14.440;2023-09-19T05:44:45;97974.59;;;20.09;70.41
73016;BME280;61893;50.074;14.440;2023-09-19T05:47:14;97971.56;;;20.35;69.23
73016;BME280;61893;50.074;14.440;2023-09-19T05:50:20;97973.44;;;20.35;70.35
73016;BME280;61893;50.074;14.440;2023-09-19T05:54:09;97962.72;;;20.28;68.38
73016;BME280;61893;50.074;14.440;2023-09-19T05:56:38;97964.59;;;20.28;69.11
73016;BME280;61893;50.074;14.440;2023-09-19T06:07:38;97978.44;;;19.83;71.70
73016;BME280;61893;50.074;14.440;2023-09-19T06:10:35;97991.34;;;20.17;70.22
73016;BME280;61893;50.074;14.440;2023-09-19T06:13:02;98000.03;;;20.01;70.24
73016;BME280;61893;50.074;14.440;2023-09-19T06:15:33;98004.50;;;20.25;69.80
73016;BME280;61893;50.074;14.440;2023-09-19T06:18:04;98010.66;;;20.33;69.56
73016;BME280;61893;50.074;14.440;2023-09-19T06:20:30;98011.81;;;20.07;69.12
73016;BME280;61893;50.074;14.440;2023-09-19T06:28:22;98027.59;;;20.40;67.46
73016;BME280;61893;50.074;14.440;2023-09-19T06:33:56;98025.88;;;20.64;67.02
73016;BME280;61893;50.074;14.440;2023-09-19T06:36:40;98032.38;;;20.75;66.78
73016;BME280;61893;50.074;14.440;2023-09-19T07:01:12;98056.22;;;21.20;64.25
73016;BME280;61893;50.074;14.440;2023-09-19T08:50:49;98132.53;;;23.38;54.16
73016;BME280;61893;50.074;14.440;2023-09-19T10:38:01;98155.94;;;25.34;46.24
73016;BME280;61893;50.074;14.440;2023-09-19T10:40:49;98161.25;;;25.24;44.90
73016;BME280;61893;50.074;14.440;2023-09-19T10:43:53;98153.34;;;24.73;44.09
73016;BME280;61893;50.074;14.440;2023-09-19T10:46:46;98151.28;;;24.24;42.52
73016;BME280;61893;50.074;14.440;2023-09-19T10:49:59;98157.22;;;24.21;43.67
73016;BME280;61893;50.074;14.440;2023-09-19T10:52:45;98158.16;;;24.10;42.47
73016;BME280;61893;50.074;14.440;2023-09-19T10:56:03;98153.06;;;24.53;42.75
73016;BME280;61893;50.074;14.440;2023-09-19T11:04:32;98147.00;;;24.12;43.29
73016;BME280;61893;50.074;14.440;2023-09-19T11:08:10;98154.66;;;24.32;42.28
73016;BME280;61893;50.074;14.440;2023-09-19T11:14:44;98153.03;;;24.14;42.98
73016;BME280;61893;50.074;14.440;2023-09-19T11:17:46;98144.72;;;24.03;43.43
73016;BME280;61893;50.074;14.440;2023-09-19T11:20:35;98149.50;;;24.13;42.83
73016;BME280;61893;50.074;14.440;2023-09-19T11:23:43;98150.09;;;23.98;43.00
73016;BME280;61893;50.074;14.440;2023-09-19T11:26:57;98152.91;;;23.87;43.79
73016;BME280;61893;50.074;14.440;2023-09-19T11:30:25;98150.63;;;24.17;43.30
73016;BME280;61893;50.074;14.440;2023-09-19T11:35:59;98148.03;;;23.26;44.11
73016;BME280;61893;50.074;14.440;2023-09-19T11:43:49;98142.66;;;23.14;44.32
73016;BME280;61893;50.074;14.440;2023-09-19T11:46:20;98146.66;;;23.24;44.13
73016;BME280;61893;50.074;14.440;2023-09-19T11:48:50;98152.41;;;23.27;43.84
73016;BME280;61893;50.074;14.440;2023-09-19T11:51:17;98151.53;;;23.55;42.05
73016;BME280;61893;50.074;14.440;2023-09-19T11:53:59;98148.69;;;23.79;41.60
73016;BME280;61893;50.074;14.440;2023-09-19T11:56:28;98150.91;;;23.99;41.85
73016;BME280;61893;50.074;14.440;2023-09-19T11:59:13;98153.34;;;24.17;41.67
73016;BME280;61893;50.074;14.440;2023-09-19T12:02:08;98150.72;;;24.05;41.21
73016;BME280;61893;50.074;14.440;2023-09-19T12:08:20;98147.88;;;24.51;42.45
73016;BME280;61893;50.074;14.440;2023-09-19T12:14:00;98153.78;;;24.87;42.75
73016;BME280;61893;50.074;14.440;2023-09-19T12:23:14;98136.97;;;24.95;41.42
73016;BME280;61893;50.074;14.440;2023-09-19T12:26:18;98143.19;;;24.90;41.88
73016;BME280;61893;50.074;14.440;2023-09-19T12:35:36;98139.31;;;25.08;39.08
73016;BME280;61893;50.074;14.440;2023-09-19T12:38:05;98139.53;;;24.80;40.51
73016;BME280;61893;50.074;14.440;2023-09-19T12:44:11;98134.41;;;24.61;39.44
73016;BME280;61893;50.074;14.440;2023-09-19T12:46:52;98129.69;;;25.01;40.32
73016;BME280;61893;50.074;14.440;2023-09-19T12:49:41;98123.38;;;25.49;38.64
73016;BME280;61893;50.074;14.440;2023-09-19T12:53:04;98130.72;;;25.81;38.97
73016;BME280;61893;50.074;14.440;2023-09-19T12:58:34;98124.88;;;25.35;37.83
73016;BME280;61893;50.074;14.440;2023-09-19T13:01:01;98126.56;;;25.36;39.76
73016;BME280;61893;50.074;14.440;2023-09-19T13:03:31;98118.84;;;25.28;38.42
73016;BME280;61893;50.074;14.440;2023-09-19T13:06:02;98124.59;;;25.63;38.50
73016;BME280;61893;50.074;14.440;2023-09-19T13:08:37;98125.16;;;25.33;36.77
73016;BME280;61893;50.074;14.440;2023-09-19T13:17:06;98113.69;;;25.58;39.51
73016;BME280;61893;50.074;14.440;2023-09-19T13:20:20;98110.84;;;25.48;38.09
73016;BME280;61893;50.074;14.440;2023-09-19T13:23:36;98120.28;;;25.35;38.52
73016;BME280;61893;50.074;14.440;2023-09-19T13:26:25;98107.59;;;25.51;36.41
73016;BME280;61893;50.074;14.440;2023-09-19T13:29:21;98113.03;;;25.19;36.14
73016;BME280;61893;50.074;14.440;2023-09-19T13:31:50;98110.31;;;25.19;37.29
73016;BME280;61893;50.074;14.440;2023-09-19T13:34:44;98111.91;;;25.15;36.52
73016;BME280;61893;50.074;14.440;2023-09-19T13:37:13;98112.00;;;25.25;34.98
73016;BME280;61893;50.074;14.440;2023-09-19T13:40:05;98112.66;;;25.37;36.29
73016;BME280;61893;50.074;14.440;2023-09-19T13:43:15;98109.81;;;25.54;37.59
73016;BME280;61893;50.074;14.440;2023-09-19T13:46:10;98109.69;;;25.39;33.49
73016;BME280;61893;50.074;14.440;2023-09-19T13:48:53;98119.72;;;25.33;35.86
73016;BME280;61893;50.074;14.440;2023-09-19T13:51:22;98112.47;;;24.68;37.00
73016;BME280;61893;50.074;14.440;2023-09-19T13:53:59;98120.38;;;24.47;35.82
73016;BME280;61893;50.074;14.440;2023-09-19T13:56:26;98111.13;;;24.70;38.89
73016;BME280;61893;50.074;14.440;2023-09-19T13:58:59;98117.47;;;25.03;36.49
73016;BME280;61893;50.074;14.440;2023-09-19T14:01:42;98114.03;;;25.13;38.13
73016;BME280;61893;50.074;14.440;2023-09-19T14:04:10;98111.25;;;24.59;35.14
73016;BME280;61893;50.074;14.440;2023-09-19T14:06:44;98116.78;;;24.64;37.31
73016;BME280;61893;50.074;14.440;2023-09-19T14:09:44;98105.53;;;24.38;35.23
73016;BME280;61893;50.074;14.440;2023-09-19T14:12:12;98122.06;;;24.54;34.95
73016;BME280;61893;50.074;14.440;2023-09-19T14:15:22;98118.06;;;24.83;35.03
73016;BME280;61893;50.074;14.440;2023-09-19T14:18:37;98106.72;;;24.64;36.91
73016;BME280;61893;50.074;14.440;2023-09-19T14:21:37;98107.06;;;24.51;36.32
73016;BME280;61893;50.074;14.440;2023-09-19T14:24:21;98106.78;;;24.47;35.32
73016;BME280;61893;50.074;14.440;2023-09-19T14:27:19;98100.66;;;24.40;36.39
73016;BME280;61893;50.074;14.440;2023-09-19T14:33:18;98112.44;;;24.46;36.72
73016;BME280;61893;50.074;14.440;2023-09-19T14:36:07;98107.53;;;24.26;36.40
73016;BME280;61893;50.074;14.440;2023-09-19T14:38:35;98105.00;;;24.19;36.07
73016;BME280;61893;50.074;14.440;2023-09-19T14:41:02;98109.88;;;24.00;37.12
73016;BME280;61893;50.074;14.440;2023-09-19T14:43:48;98110.88;;;23.94;38.06
73016;BME280;61893;50.074;14.440;2023-09-19T14:46:37;98112.56;;;23.95;37.30
73016;BME280;61893;50.074;14.440;2023-09-19T14:49:23;98118.63;;;23.86;37.51
73016;BME280;61893;50.074;14.440;2023-09-19T14:52:13;98119.03;;;24.11;38.21
73016;BME280;61893;50.074;14.440;2023-09-19T14:55:16;98110.75;;;24.23;39.20
73016;BME280;61893;50.074;14.440;2023-09-19T14:58:00;98125.34;;;23.78;38.14
73016;BME280;61893;50.074;14.440;2023-09-19T15:00:34;98116.16;;;24.01;38.51
73016;BME280;61893;50.074;14.440;2023-09-19T15:03:36;98117.13;;;24.12;39.09
73016;BME280;61893;50.074;14.440;2023-09-19T15:06:09;98120.44;;;23.97;37.15
73016;BME280;61893;50.074;14.440;2023-09-19T15:09:07;98127.69;;;23.91;37.91
73016;BME280;61893;50.074;14.440;2023-09-19T15:11:56;98121.28;;;23.80;37.17
73016;BME280;61893;50.074;14.440;2023-09-19T15:17:24;98125.25;;;23.73;37.40
73016;BME280;61893;50.074;14.440;2023-09-19T15:20:02;98119.69;;;23.68;37.16
73016;BME280;61893;50.074;14.440;2023-09-19T15:22:37;98127.47;;;23.76;37.57
73016;BME280;61893;50.074;14.440;2023-09-19T15:25:08;98129.66;;;23.62;36.47
73016;BME280;61893;50.074;14.440;2023-09-19T15:27:34;98122.72;;;23.54;37.18
73016;BME280;61893;50.074;14.440;2023-09-19T15:30:10;98125.03;;;23.63;36.69
73016;BME280;61893;50.074;14.440;2023-09-19T15:32:36;98133.88;;;23.87;38.04
73016;BME280;61893;50.074;14.440;2023-09-19T15:41:38;98132.66;;;23.15;38.26
73016;BME280;61893;50.074;14.440;2023-09-19T15:44:12;98138.09;;;23.32;42.57
73016;BME280;61893;50.074;14.440;2023-09-19T15:46:39;98129.88;;;23.60;40.62
73016;BME280;61893;50.074;14.440;2023-09-19T15:49:05;98133.59;;;23.54;40.75
73016;BME280;61893;50.074;14.440;2023-09-19T15:51:36;98128.88;;;23.78;40.87
73016;BME280;61893;50.074;14.440;2023-09-19T15:54:47;98127.78;;;23.17;39.07
73016;BME280;61893;50.074;14.440;2023-09-19T15:57:32;98130.31;;;23.07;40.75
73016;BME280;61893;50.074;14.440;2023-09-19T16:00:07;98122.56;;;22.99;39.73
73016;BME280;61893;50.074;14.440;2023-09-19T16:02:45;98132.50;;;22.81;39.69
73016;BME280;61893;50.074;14.440;2023-09-19T16:05:28;98127.34;;;22.68;40.60
73016;BME280;61893;50.074;14.440;2023-09-19T16:07:56;98131.19;;;22.55;41.43
73016;BME280;61893;50.074;14.440;2023-09-19T16:10:36;98138.84;;;22.46;40.93
73016;BME280;61893;50.074;14.440;2023-09-19T16:13:24;98140.75;;;22.34;41.87
73016;BME280;61893;50.074;14.440;2023-09-19T16:16:12;98134.50;;;22.34;41.07
73016;BME280;61893;50.074;14.440;2023-09-19T16:18:39;98136.63;;;22.32;42.89
73016;BME280;61893;50.074;14.440;2023-09-19T16:21:31;98137.22;;;22.34;42.60
73016;BME280;61893;50.074;14.440;2023-09-19T16:30:09;98146.50;;;21.91;40.74
73016;BME280;61893;50.074;14.440;2023-09-19T16:32:44;98147.44;;;21.85;41.93
73016;BME280;61893;50.074;14.440;2023-09-19T16:35:11;98146.75;;;21.89;42.81
73016;BME280;61893;50.074;14.440;2023-09-19T16:37:38;98144.75;;;21.85;42.46
73016;BME280;61893;50.074;14.440;2023-09-19T16:40:04;98142.25;;;21.71;43.20
73016;BME280;61893;50.074;14.440;2023-09-19T16:42:34;98147.44;;;21.73;41.94
73016;BME280;61893;50.074;14.440;2023-09-19T16:44:59;98142.72;;;21.68;44.38
73016;BME280;61893;50.074;14.440;2023-09-19T16:47:26;98147.44;;;21.61;43.08
73016;BME280;61893;50.074;14.440;2023-09-19T16:49:54;98146.66;;;21.42;41.68
73016;BME280;61893;50.074;14.440;2023-09-19T16:52:28;98147.91;;;21.58;45.55
73016;BME280;61893;50.074;14.440;2023-09-19T16:54:55;98152.22;;;21.47;44.90
73016;BME280;61893;50.074;14.440;2023-09-19T16:57:39;98161.75;;;21.20;44.01
73016;BME280;61893;50.074;14.440;2023-09-19T17:00:17;98170.75;;;21.32;46.02
73016;BME280;61893;50.074;14.440;2023-09-19T17:02:48;98165.84;;;21.10;43.12
73016;BME280;61893;50.074;14.440;2023-09-19T17:05:17;98167.47;;;21.11;44.11
73016;BME280;61893;50.074;14.440;2023-09-19T17:13:55;98169.03;;;20.70;43.97
73016;BME280;61893;50.074;14.440;2023-09-19T17:16:56;98179.22;;;20.50;44.61
73016;BME280;61893;50.074;14.440;2023-09-19T17:19:49;98181.69;;;20.52;44.19
73016;BME280;61893;50.074;14.440;2023-09-19T17:23:05;98180.50;;;20.29;46.28
73016;BME280;61893;50.074;14.440;2023-09-19T17:26:12;98190.63;;;20.34;46.62
73016;BME280;61893;50.074;14.440;2023-09-19T17:29:29;98186.94;;;20.28;48.42
73016;BME280;61893;50.074;14.440;2023-09-19T17:32:21;98190.91;;;20.25;45.12
73016;BME280;61893;50.074;14.440;2023-09-19T17:35:19;98187.47;;;20.18;46.04
73016;BME280;61893;50.074;14.440;2023-09-19T17:37:50;98186.13;;;20.28;48.19
73016;BME280;61893;50.074;14.440;2023-09-19T17:40:17;98195.47;;;20.07;47.22
73016;BME280;61893;50.074;14.440;2023-09-19T17:42:44;98191.41;;;19.97;47.54
73016;BME280;61893;50.074;14.440;2023-09-19T17:45:28;98190.56;;;19.97;49.03
73016;BME280;61893;50.074;14.440;2023-09-19T17:47:54;98197.56;;;20.05;47.72
73016;BME280;61893;50.074;14.440;2023-09-19T17:50:20;98201.34;;;19.97;47.11
73016;BME280;61893;50.074;14.440;2023-09-19T17:52:46;98194.03;;;19.79;46.63
73016;BME280;61893;50.074;14.440;2023-09-19T17:55:27;98203.91;;;19.92;47.81
73016;BME280;61893;50.074;14.440;2023-09-19T17:58:18;98199.44;;;19.79;46.73
73016;BME280;61893;50.074;14.440;2023-09-19T18:01:16;98211.03;;;19.79;48.16
73016;BME280;61893;50.074;14.440;2023-09-19T18:04:09;98206.09;;;19.76;49.55
73016;BME280;61893;50.074;14.440;2023-09-19T18:07:32;98210.13;;;19.61;48.73
73016;BME280;61893;50.074;14.440;2023-09-19T18:10:09;98207.50;;;19.47;48.52
73016;BME280;61893;50.074;14.440;2023-09-19T18:12:40;98216.91;;;19.38;47.95
73016;BME280;61893;50.074;14.440;2023-09-19T18:15:12;98221.84;;;19.09;48.43
73016;BME280;61893;50.074;14.440;2023-09-19T18:17:44;98222.09;;;19.01;48.82
73016;BME280;61893;50.074;14.440;2023-09-19T18:20:10;98227.09;;;18.91;48.94
73016;BME280;61893;50.074;14.440;2023-09-19T18:22:59;98239.19;;;18.75;49.80
73016;BME280;61893;50.074;14.440;2023-09-19T18:25:45;98233.81;;;18.55;50.17
73016;BME280;61893;50.074;14.440;2023-09-19T18:28:49;98241.91;;;18.42;50.99
73016;BME280;61893;50.074;14.440;2023-09-19T18:31:44;98239.88;;;18.37;51.11
73016;BME280;61893;50.074;14.440;2023-09-19T18:34:37;98235.72;;;18.35;50.98
73016;BME280;61893;50.074;14.440;2023-09-19T18:37:22;98247.31;;;18.22;51.29
73016;BME280;61893;50.074;14.440;2023-09-19T18:40:12;98241.97;;;18.09;52.18
73016;BME280;61893;50.074;14.440;2023-09-19T18:43:12;98256.63;;;17.99;52.80
73016;BME280;61893;50.074;14.440;2023-09-19T18:45:56;98244.22;;;17.98;52.45
73016;BME280;61893;50.074;14.440;2023-09-19T18:48:41;98250.84;;;17.96;52.18
73016;BME280;61893;50.074;14.440;2023-09-19T18:51:38;98255.00;;;17.92;52.49
73016;BME280;61893;50.074;14.440;2023-09-19T18:54:25;98246.69;;;17.93;52.60
73016;BME280;61893;50.074;14.440;2023-09-19T18:57:58;98249.41;;;17.80;53.10
73016;BME280;61893;50.074;14.440;2023-09-19T19:01:18;98249.97;;;17.75;53.63
73016;BME280;61893;50.074;14.440;2023-09-19T19:03:59;98251.84;;;17.75;53.07
73016;BME280;61893;50.074;14.440;2023-09-19T19:06:33;98249.97;;;17.69;53.75
73016;BME280;61893;50.074;14.440;2023-09-19T19:09:24;98251.22;;;17.66;53.94
73016;BME280;61893;50.074;14.440;2023-09-19T19:11:56;98250.34;;;17.59;53.97
73016;BME280;61893;50.074;14.440;2023-09-19T19:14:50;98254.50;;;17.62;53.92
73016;BME280;61893;50.074;14.440;2023-09-19T19:18:28;98256.19;;;17.63;54.18
73016;BME280;61893;50.074;14.440;2023-09-19T19:21:06;98259.66;;;17.56;54.29
73016;BME280;61893;50.074;14.440;2023-09-19T19:23:53;98249.53;;;17.52;54.48
73016;BME280;61893;50.074;14.440;2023-09-19T19:27:00;98257.38;;;17.47;55.38
73016;BME280;61893;50.074;14.440;2023-09-19T19:29:50;98260.66;;;17.42;55.19
73016;BME280;61893;50.074;14.440;2023-09-19T19:32:43;98263.34;;;17.36;55.33
73016;BME280;61893;50.074;14.440;2023-09-19T19:35:48;98265.97;;;17.22;55.75